Flight Track Log - Related Links

Times and Time Zones

All times are in EDT time to prevent confusion due to time zone crossing. See the QUE10 flight status page for this flight to view local times or setup timezone preferences in your user account.

Time Position Orientation Groundspeed Altitude Reporting Facility
EDT Latitude Longitude Course Direction KTS MPH feet Rate Location/Type
Sat 12:52:30 AM 48.4000 -78.1167 135° Southeast 320 368 14,400  Level Montreal Center
Sat 12:53:30 AM 48.3500 -78.0167 127° Southeast 330 380 17,200 2,550 Climbing Montreal Center
Sat 12:54:30 AM 48.2833 -77.9167 135° Southeast 350 403 19,500 2,350 Climbing Montreal Center
Sat 12:55:30 AM 48.2167 -77.7833 127° Southeast 360 414 21,900 2,250 Climbing Montreal Center
Sat 12:56:30 AM 48.1333 -77.6833 141° Southeast 380 437 24,000 2,050 Climbing Montreal Center
Sat 12:57:00 AM 47.8268 -77.1032 135° Southeast  Level Estimated
Sat 12:57:30 AM 48.0500 -77.5500 133° Southeast 400 460 26,000  Level Montreal Center
Sat 12:58:30 AM 47.9833 -77.4167 127° Southeast 410 472 27,800 1,400 Climbing Montreal Center
Sat 12:59:30 AM 47.9000 -77.2667 130° Southeast 430 495 28,800 850 Climbing Montreal Center
Sat 01:00:30 AM 47.8167 -77.1167 130° Southeast 450 518 29,500 600 Climbing Montreal Center
Sat 01:01:30 AM 47.7333 -76.9833 133° Southeast 470 541 30,000 500 Climbing Montreal Center
Sat 01:02:30 AM 47.6500 -76.8167 127° Southeast 480 552 30,500 750 Climbing Montreal Center
Sat 01:03:30 AM 47.5667 -76.6833 133° Southeast 490 564 31,500 950 Climbing Montreal Center
Sat 01:04:30 AM 47.4667 -76.5333 135° Southeast 480 552 32,400 750 Climbing Montreal Center
Sat 01:05:30 AM 47.3833 -76.3667 126° Southeast 480 552 33,000 300 Climbing Montreal Center
Sat 01:06:30 AM 47.3000 -76.2167 129° Southeast 490 564 33,000  Level Montreal Center
Sat 01:07:30 AM 47.2000 -76.0667 134° Southeast 490 564 33,000  Level Montreal Center
Sat 01:08:30 AM 47.1167 -75.9167 129° Southeast 490 564 33,000 -150 Level Montreal Center
Sat 01:09:30 AM 47.0167 -75.7500 131° Southeast 500 575 32,700 -700 Descending Montreal Center
Sat 01:10:30 AM 46.9333 -75.6000 129° Southeast 510 587 31,600 -1,050 Descending Montreal Center
Sat 01:11:30 AM 46.8333 -75.4500 134° Southeast 510 587 30,600 -1,000 Descending Montreal Center
Sat 01:12:30 AM 46.7500 -75.2833 126° Southeast 510 587 29,600 -800 Descending Montreal Center
Sat 01:13:30 AM 46.6500 -75.1333 134° Southeast 510 587 29,000 -300 Descending Montreal Center
Sat 01:14:30 AM 46.5667 -74.9667 126° Southeast 510 587 29,000  Level Montreal Center
Sat 01:15:30 AM 46.4500 -74.8167 138° Southeast 510 587 29,000 -450 Level Montreal Center
Sat 01:16:30 AM 46.3500 -74.6833 137° Southeast 510 587 28,100 -2,050 Descending Montreal Center
Sat 01:17:30 AM 46.2667 -74.5167 126° Southeast 500 575 24,900 -3,200 Descending Montreal Center
Sat 01:18:30 AM 46.1833 -74.3667 129° Southeast 490 564 21,700 -3,150 Descending Montreal Center
Sat 01:19:30 AM 46.0833 -74.2333 137° Southeast 480 552 18,600 -3,250 Descending Montreal Center
Sat 01:20:30 AM 46.0000 -74.0833 129° Southeast 470 541 15,200 -3,300 Descending Montreal Center
Sat 01:21:30 AM 45.9333 -73.9667 129° Southeast 400 460 12,000 -3,100 Descending Montreal Center
Sat 01:22:30 AM 45.8333 -73.9000 155° Southeast 360 414 9,000 -3,050 Descending Montreal Center
Sat 01:23:30 AM 45.7500 -73.8333 151° Southeast 320 368 5,900 -2,300 Descending Montreal Center
Sat 01:24:30 AM 45.6833 -73.7833 152° Southeast 280 322 4,400 -950 Descending Montreal Center
Sat 01:25:30 AM 45.6167 -73.7333 152° Southeast 240 276 4,000 -950 Descending Montreal Center
Sat 01:26:30 AM 45.5667 -73.7000 155° Southeast 230 265 2,500 -1,350 Descending Montreal Center
Sat 01:27:30 AM 45.5167 -73.6500 145° Southeast 200 230 1,300 -1,000 Descending Montreal Center
Sat 01:28:30 AM 45.4833 -73.7000 226° Southwest 150 173 500 -600 Descending Montreal Center
Sat 01:29:30 AM 45.4500 -73.7167 199° South 80 92 100 -400 Descending Montreal Center

Login

Don't have an account? Register now (free) for customized features, flight alerts, and more!